Time;durP1;ratioP1;P1;durP2;ratioP2;P2;SDS_P1;SDS_P2;PMS_P1;PMS_P2;Temp;Humidity;BMP_temperature;BMP_pressure;BME280_temperature;BME280_humidity;BME280_pressure;Samples;Min_cycle;Max_cycle;Signal;HPM_P1;HPM_P2
2022/07/14 00:01:51;;;;;;;7.10;2.90;;;;;;;;;;5118460;27;20228;-75
2022/07/14 00:04:18;;;;;;;3.90;2.60;;;;;;;;;;5130139;27;20308;-74
2022/07/14 00:06:46;;;;;;;4.80;2.53;;;;;;;;;;5119719;27;20233;-75
2022/07/14 00:09:14;;;;;;;5.27;3.00;;;;;;;;;;5123961;27;20584;-74
2022/07/14 00:11:41;;;;;;;5.73;3.03;;;;;;;;;;5113989;27;20205;-75
2022/07/14 00:14:08;;;;;;;6.77;3.10;;;;;;;;;;5130570;27;20237;-74
2022/07/14 00:16:36;;;;;;;5.40;2.90;;;;;;;;;;5128683;27;20246;-73
2022/07/14 00:19:03;;;;;;;6.03;2.97;;;;;;;;;;5120796;27;20637;-74
2022/07/14 00:21:30;;;;;;;5.67;3.23;;;;;;;;;;5128517;27;20200;-74
2022/07/14 00:23:59;;;;;;;6.43;3.27;;;;;;;;;;5128114;27;20267;-75
2022/07/14 00:26:26;;;;;;;5.43;3.10;;;;;;;;;;5120708;27;20225;-74
2022/07/14 00:28:53;;;;;;;3.87;3.10;;;;;;;;;;5129031;27;20273;-75
2022/07/14 00:31:20;;;;;;;7.07;3.27;;;;;;;;;;5121199;27;20289;-75
2022/07/14 00:33:47;;;;;;;4.40;3.00;;;;;;;;;;5122472;27;20224;-74
2022/07/14 00:36:15;;;;;;;4.83;3.10;;;;;;;;;;5114183;27;20197;-74
2022/07/14 00:38:42;;;;;;;7.27;3.20;;;;;;;;;;5127081;27;20656;-75
2022/07/14 00:41:11;;;;;;;9.40;3.20;;;;;;;;;;5133055;27;20224;-75
2022/07/14 00:43:38;;;;;;;5.57;3.30;;;;;;;;;;5122921;27;20275;-75
2022/07/14 00:46:05;;;;;;;3.37;2.73;;;;;;;;;;5124586;27;20316;-74
2022/07/14 00:48:33;;;;;;;5.70;3.17;;;;;;;;;;5121216;27;20205;-74
2022/07/14 00:51:00;;;;;;;6.23;3.13;;;;;;;;;;5127643;27;20325;-74
2022/07/14 00:53:27;;;;;;;6.23;3.20;;;;;;;;;;5122308;27;20224;-74
2022/07/14 00:55:54;;;;;;;5.03;2.90;;;;;;;;;;5132677;27;20280;-74
2022/07/14 00:58:23;;;;;;;5.23;3.10;;;;;;;;;;5129763;27;20197;-75
2022/07/14 01:00:50;;;;;;;3.47;3.00;;;;;;;;;;5132544;27;20231;-74
2022/07/14 01:03:17;;;;;;;4.67;3.60;;;;;;;;;;5133341;27;20323;-74
2022/07/14 01:05:45;;;;;;;5.13;3.33;;;;;;;;;;5133395;27;20285;-74
2022/07/14 01:08:12;;;;;;;4.23;3.27;;;;;;;;;;5117830;27;20244;-74
2022/07/14 01:10:39;;;;;;;6.40;3.30;;;;;;;;;;5133442;27;20283;-74
2022/07/14 01:13:07;;;;;;;6.37;3.33;;;;;;;;;;5133386;27;20189;-74
2022/07/14 01:15:36;;;;;;;5.83;3.57;;;;;;;;;;5133425;27;20232;-74
2022/07/14 01:18:04;;;;;;;7.47;3.50;;;;;;;;;;5133083;27;20224;-75
2022/07/14 01:20:31;;;;;;;6.07;3.40;;;;;;;;;;5127608;27;20200;-74
2022/07/14 01:23:01;;;;;;;7.03;3.83;;;;;;;;;;5122598;27;20312;-74
2022/07/14 01:25:28;;;;;;;7.43;3.90;;;;;;;;;;5121113;28;20370;-74
2022/07/14 01:27:55;;;;;;;4.73;3.60;;;;;;;;;;5121685;27;20668;-74
2022/07/14 01:30:23;;;;;;;8.00;3.60;;;;;;;;;;5120980;28;20262;-74
2022/07/14 01:32:50;;;;;;;6.07;3.73;;;;;;;;;;5121241;28;20284;-75
2022/07/14 01:35:17;;;;;;;6.20;4.07;;;;;;;;;;5126405;27;20236;-74
2022/07/14 01:37:48;;;;;;;7.53;4.07;;;;;;;;;;5125901;27;20229;-75
2022/07/14 01:40:16;;;;;;;4.17;3.60;;;;;;;;;;5114145;27;20197;-74
2022/07/14 01:42:43;;;;;;;7.70;3.90;;;;;;;;;;5116864;28;20650;-75
2022/07/14 01:45:11;;;;;;;5.07;3.90;;;;;;;;;;5132018;27;20583;-74
2022/07/14 01:47:39;;;;;;;5.40;4.60;;;;;;;;;;5132628;27;20283;-74
2022/07/14 01:50:06;;;;;;;8.90;4.43;;;;;;;;;;5117959;27;20284;-74
2022/07/14 01:52:33;;;;;;;5.30;4.40;;;;;;;;;;5118295;28;20280;-74
2022/07/14 01:55:01;;;;;;;11.00;4.40;;;;;;;;;;5124256;27;20292;-74
2022/07/14 01:57:30;;;;;;;6.67;4.33;;;;;;;;;;5112170;28;20289;-74
2022/07/14 01:59:57;;;;;;;7.10;4.53;;;;;;;;;;5111994;28;20229;-75
2022/07/14 02:02:24;;;;;;;6.73;4.67;;;;;;;;;;5129140;28;20668;-74
2022/07/14 02:04:52;;;;;;;5.73;4.40;;;;;;;;;;5122848;27;20261;-75
2022/07/14 02:07:19;;;;;;;8.80;4.60;;;;;;;;;;5112080;28;20270;-74
2022/07/14 02:12:32;;;;;;;11.70;5.03;;;;;;;;;;5117029;28;20262;-75
2022/07/14 02:14:59;;;;;;;5.77;4.67;;;;;;;;;;5131675;27;20190;-74
2022/07/14 02:17:27;;;;;;;13.70;5.30;;;;;;;;;;5131393;27;20205;-74
2022/07/14 02:19:54;;;;;;;8.90;5.20;;;;;;;;;;5113487;27;20297;-74
2022/07/14 02:22:21;;;;;;;8.33;5.23;;;;;;;;;;5127190;28;20223;-74
2022/07/14 02:24:48;;;;;;;7.20;5.43;;;;;;;;;;5132437;27;20286;-74
2022/07/14 02:27:16;;;;;;;9.50;5.47;;;;;;;;;;5132596;27;20287;-74
2022/07/14 02:29:44;;;;;;;8.40;5.90;;;;;;;;;;5133013;27;20197;-74
2022/07/14 02:32:11;;;;;;;6.73;5.33;;;;;;;;;;5132816;27;20229;-74
2022/07/14 02:34:39;;;;;;;9.90;5.40;;;;;;;;;;5128025;27;20644;-75
2022/07/14 02:37:06;;;;;;;7.97;6.20;;;;;;;;;;5122261;28;20197;-75
2022/07/14 02:39:33;;;;;;;7.80;5.77;;;;;;;;;;5123972;27;20314;-74
2022/07/14 02:42:01;;;;;;;10.17;6.20;;;;;;;;;;5125114;27;20198;-74
2022/07/14 02:44:28;;;;;;;9.53;6.50;;;;;;;;;;5124662;27;20243;-74
2022/07/14 02:46:57;;;;;;;10.07;6.10;;;;;;;;;;5132138;27;20835;-75
2022/07/14 02:49:24;;;;;;;7.90;6.03;;;;;;;;;;5114834;28;20672;-74
2022/07/14 02:51:52;;;;;;;7.83;5.53;;;;;;;;;;5125415;27;20309;-74
2022/07/14 02:54:20;;;;;;;8.57;6.30;;;;;;;;;;5127590;27;20189;-75
2022/07/14 02:56:47;;;;;;;7.67;6.33;;;;;;;;;;5123841;27;20250;-75
2022/07/14 02:59:14;;;;;;;8.37;6.13;;;;;;;;;;5124288;27;20240;-74
2022/07/14 03:01:41;;;;;;;6.37;5.77;;;;;;;;;;5131631;27;20229;-74
2022/07/14 03:04:10;;;;;;;8.07;5.93;;;;;;;;;;5118478;27;20325;-74
2022/07/14 03:06:37;;;;;;;10.03;7.03;;;;;;;;;;5126570;27;20240;-74
2022/07/14 03:09:04;;;;;;;8.97;6.40;;;;;;;;;;5124812;27;20251;-75
2022/07/14 03:11:31;;;;;;;8.17;6.60;;;;;;;;;;5125614;27;20197;-75
2022/07/14 03:13:59;;;;;;;8.03;6.80;;;;;;;;;;5123276;27;20225;-74
2022/07/14 03:16:27;;;;;;;7.60;6.80;;;;;;;;;;5123862;27;20200;-74
2022/07/14 03:18:54;;;;;;;11.53;7.47;;;;;;;;;;5122539;27;20704;-75
2022/07/14 03:21:23;;;;;;;10.40;7.60;;;;;;;;;;5122985;27;20635;-75
2022/07/14 03:23:50;;;;;;;8.70;7.30;;;;;;;;;;5134964;27;20236;-75
2022/07/14 03:26:17;;;;;;;9.67;7.33;;;;;;;;;;5134091;27;20228;-75
2022/07/14 03:28:45;;;;;;;10.07;7.70;;;;;;;;;;5121892;27;20344;-75
2022/07/14 03:31:12;;;;;;;9.43;7.40;;;;;;;;;;5122652;27;20249;-75
2022/07/14 03:33:39;;;;;;;10.07;7.90;;;;;;;;;;5113843;27;20198;-75
2022/07/14 03:36:06;;;;;;;10.57;7.43;;;;;;;;;;5132523;27;20580;-74
2022/07/14 03:38:35;;;;;;;9.97;8.67;;;;;;;;;;5134610;27;20229;-75
2022/07/14 03:41:03;;;;;;;9.07;8.13;;;;;;;;;;5135250;27;20851;-75
2022/07/14 03:43:30;;;;;;;9.63;8.13;;;;;;;;;;5127179;27;20974;-74
2022/07/14 03:45:57;;;;;;;10.50;8.77;;;;;;;;;;5122950;27;20229;-74
2022/07/14 03:48:25;;;;;;;11.87;9.37;;;;;;;;;;5127497;27;20229;-74
2022/07/14 03:50:52;;;;;;;11.27;9.07;;;;;;;;;;5124570;27;20303;-74
2022/07/14 03:53:19;;;;;;;13.00;9.13;;;;;;;;;;5124328;27;20680;-74
2022/07/14 03:55:48;;;;;;;10.63;9.43;;;;;;;;;;5125631;27;20288;-74
2022/07/14 03:58:15;;;;;;;11.00;8.83;;;;;;;;;;5126304;27;20691;-74
2022/07/14 04:00:42;;;;;;;10.47;9.37;;;;;;;;;;5125891;27;20253;-74
2022/07/14 04:03:11;;;;;;;11.17;9.43;;;;;;;;;;5131823;27;20260;-75
2022/07/14 04:05:38;;;;;;;11.33;10.10;;;;;;;;;;5125869;27;20201;-75
2022/07/14 04:08:06;;;;;;;13.57;9.87;;;;;;;;;;5124860;27;20284;-74
2022/07/14 04:10:33;;;;;;;13.47;10.40;;;;;;;;;;5122634;27;20240;-75
2022/07/14 04:13:01;;;;;;;14.40;11.20;;;;;;;;;;5128430;27;20652;-74
2022/07/14 04:15:30;;;;;;;14.53;11.50;;;;;;;;;;5123468;27;20605;-74
2022/07/14 04:17:57;;;;;;;13.80;11.70;;;;;;;;;;5113094;28;20231;-75
2022/07/14 04:20:25;;;;;;;15.90;11.77;;;;;;;;;;5113748;28;20229;-74
2022/07/14 04:22:52;;;;;;;15.53;11.43;;;;;;;;;;5112949;28;20237;-74
2022/07/14 04:25:20;;;;;;;15.37;12.13;;;;;;;;;;5113045;28;20253;-74
2022/07/14 04:27:47;;;;;;;12.70;11.40;;;;;;;;;;5113348;28;20221;-74
2022/07/14 04:30:16;;;;;;;15.43;11.93;;;;;;;;;;5113146;28;20276;-74
2022/07/14 04:32:44;;;;;;;16.30;13.00;;;;;;;;;;5120976;27;20204;-74
2022/07/14 04:35:11;;;;;;;15.23;12.47;;;;;;;;;;5128672;27;20213;-74
2022/07/14 04:37:38;;;;;;;14.90;12.27;;;;;;;;;;5130445;27;20283;-74
2022/07/14 04:40:06;;;;;;;17.60;12.70;;;;;;;;;;5120395;27;20248;-74
2022/07/14 04:42:34;;;;;;;16.47;13.43;;;;;;;;;;5116564;27;20198;-74
2022/07/14 04:45:02;;;;;;;14.97;12.87;;;;;;;;;;5128318;27;20261;-74
2022/07/14 04:47:30;;;;;;;14.47;12.47;;;;;;;;;;5118388;27;20193;-74
2022/07/14 04:52:46;;;;;;;15.97;12.30;;;;;;;;;;5122834;27;20201;-76
2022/07/14 04:55:13;;;;;;;17.07;12.83;;;;;;;;;;5128009;27;20562;-74
2022/07/14 04:57:41;;;;;;;16.43;12.60;;;;;;;;;;5115604;27;20666;-74
2022/07/14 05:00:09;;;;;;;17.83;12.67;;;;;;;;;;5132810;27;20232;-74
2022/07/14 05:02:38;;;;;;;17.27;12.90;;;;;;;;;;5121897;27;20585;-75
2022/07/14 05:05:05;;;;;;;16.33;12.43;;;;;;;;;;5119983;27;20252;-74
2022/07/14 05:07:33;;;;;;;17.63;13.00;;;;;;;;;;5128857;27;20228;-74
2022/07/14 05:10:00;;;;;;;15.23;12.63;;;;;;;;;;5115750;27;20230;-75
2022/07/14 05:12:28;;;;;;;16.67;12.60;;;;;;;;;;5132662;27;20233;-74
2022/07/14 05:14:55;;;;;;;15.40;12.83;;;;;;;;;;5130952;27;20284;-74
2022/07/14 05:17:22;;;;;;;15.07;12.10;;;;;;;;;;5113016;28;20228;-75
2022/07/14 05:19:51;;;;;;;13.90;12.10;;;;;;;;;;5119788;27;20201;-75
2022/07/14 05:22:18;;;;;;;14.70;11.63;;;;;;;;;;5113212;28;20213;-74
2022/07/14 05:24:46;;;;;;;15.10;12.43;;;;;;;;;;5114105;28;20305;-74
2022/07/14 05:27:13;;;;;;;16.33;12.37;;;;;;;;;;5123910;27;20254;-74
2022/07/14 05:29:40;;;;;;;19.83;11.97;;;;;;;;;;5126283;27;20245;-74
2022/07/14 05:32:08;;;;;;;15.17;12.10;;;;;;;;;;5121298;27;20633;-75
2022/07/14 05:34:41;;;;;;;15.70;12.03;;;;;;;;;;5118244;28;20236;-74
2022/07/14 05:37:10;;;;;;;15.90;12.60;;;;;;;;;;5114703;27;20198;-75
2022/07/14 05:39:38;;;;;;;15.90;12.37;;;;;;;;;;5112856;28;20237;-74
2022/07/14 05:42:05;;;;;;;13.40;11.63;;;;;;;;;;5112552;28;20194;-74
2022/07/14 05:44:33;;;;;;;13.17;11.17;;;;;;;;;;5112447;28;21020;-74
2022/07/14 05:47:00;;;;;;;13.37;11.00;;;;;;;;;;5124425;28;20201;-74
2022/07/14 05:49:27;;;;;;;12.63;10.67;;;;;;;;;;5119399;27;20236;-74
2022/07/14 05:51:54;;;;;;;12.90;11.07;;;;;;;;;;5115103;28;20213;-74
2022/07/14 05:54:23;;;;;;;11.73;10.48;;;;;;;;;;5112217;28;20732;-74
2022/07/14 05:56:51;;;;;;;12.60;10.60;;;;;;;;;;5125457;28;20228;-74
2022/07/14 05:59:18;;;;;;;10.65;9.55;;;;;;;;;;5115194;27;20285;-74
2022/07/14 06:01:45;;;;;;;11.68;10.40;;;;;;;;;;5116101;28;20224;-74
2022/07/14 06:04:13;;;;;;;11.68;10.48;;;;;;;;;;5120731;27;20324;-74
2022/07/14 06:06:40;;;;;;;12.57;10.45;;;;;;;;;;5122110;28;20770;-74
2022/07/14 06:09:07;;;;;;;12.98;10.27;;;;;;;;;;5122157;28;20626;-75
2022/07/14 06:11:36;;;;;;;10.82;9.40;;;;;;;;;;5128763;27;20737;-74
2022/07/14 06:14:04;;;;;;;11.55;10.02;;;;;;;;;;5111696;28;20198;-75
2022/07/14 06:16:32;;;;;;;10.80;9.48;;;;;;;;;;5115836;28;20263;-75
2022/07/14 06:18:59;;;;;;;10.82;9.07;;;;;;;;;;5125089;27;20232;-74
2022/07/14 06:21:26;;;;;;;11.98;9.32;;;;;;;;;;5120432;27;20666;-75
2022/07/14 06:23:54;;;;;;;10.32;9.23;;;;;;;;;;5124355;27;20233;-74
2022/07/14 06:26:22;;;;;;;11.30;8.73;;;;;;;;;;5124335;27;20229;-74
2022/07/14 06:28:51;;;;;;;11.02;8.48;;;;;;;;;;5130075;27;20201;-74
2022/07/14 06:31:18;;;;;;;9.75;7.88;;;;;;;;;;5123008;27;20292;-74
2022/07/14 06:33:45;;;;;;;10.07;8.43;;;;;;;;;;5123339;27;20198;-74
2022/07/14 06:36:12;;;;;;;12.52;8.18;;;;;;;;;;5120585;27;20232;-74
2022/07/14 06:38:40;;;;;;;11.13;8.38;;;;;;;;;;5134141;27;20258;-75
2022/07/14 06:41:08;;;;;;;10.25;7.90;;;;;;;;;;5125320;27;20288;-75
2022/07/14 06:43:35;;;;;;;9.68;7.25;;;;;;;;;;5123656;27;20237;-74
2022/07/14 06:46:03;;;;;;;8.07;7.18;;;;;;;;;;5127289;27;20252;-74
2022/07/14 06:48:31;;;;;;;7.95;7.07;;;;;;;;;;5125702;27;20202;-75
2022/07/14 06:51:03;;;;;;;10.65;6.32;;;;;;;;;;5123792;27;20217;-74
2022/07/14 06:53:30;;;;;;;7.07;6.32;;;;;;;;;;5133312;27;20212;-75
2022/07/14 06:55:57;;;;;;;6.80;6.10;;;;;;;;;;5135787;27;20254;-74
2022/07/14 06:58:24;;;;;;;7.75;6.15;;;;;;;;;;5124446;27;20240;-74
2022/07/14 07:00:51;;;;;;;7.53;5.65;;;;;;;;;;5115682;27;20266;-75
2022/07/14 07:03:20;;;;;;;7.45;6.05;;;;;;;;;;5117307;27;20226;-75
2022/07/14 07:08:32;;;;;;;7.82;5.75;;;;;;;;;;5124090;27;20254;-74
2022/07/14 07:11:00;;;;;;;7.75;4.93;;;;;;;;;;5126542;27;20200;-74
2022/07/14 07:13:27;;;;;;;6.18;5.20;;;;;;;;;;5122634;27;20193;-74
2022/07/14 07:15:55;;;;;;;7.63;5.22;;;;;;;;;;5130980;27;20272;-75
2022/07/14 07:18:23;;;;;;;6.60;4.43;;;;;;;;;;5125251;27;20228;-75
2022/07/14 07:20:50;;;;;;;5.82;4.20;;;;;;;;;;5123719;27;20226;-75
2022/07/14 07:23:17;;;;;;;5.10;3.92;;;;;;;;;;5123372;27;20277;-74
2022/07/14 07:25:45;;;;;;;5.50;3.78;;;;;;;;;;5122505;27;20267;-75
2022/07/14 07:28:12;;;;;;;4.57;3.47;;;;;;;;;;5125029;27;20206;-75
2022/07/14 07:30:39;;;;;;;4.50;4.10;;;;;;;;;;5124310;27;20229;-75
2022/07/14 07:33:06;;;;;;;4.63;3.55;;;;;;;;;;5114194;28;20285;-73
2022/07/14 07:35:35;;;;;;;6.43;3.50;;;;;;;;;;5112145;28;20221;-75
2022/07/14 07:38:03;;;;;;;5.20;3.47;;;;;;;;;;5114264;28;20202;-75
2022/07/14 07:40:30;;;;;;;6.45;3.72;;;;;;;;;;5123294;27;20726;-75
2022/07/14 07:42:57;;;;;;;5.15;2.70;;;;;;;;;;5133144;27;20229;-74
2022/07/14 07:45:25;;;;;;;4.57;3.35;;;;;;;;;;5129068;27;20294;-74
2022/07/14 07:47:52;;;;;;;3.83;2.63;;;;;;;;;;5123813;27;20221;-73
2022/07/14 07:50:19;;;;;;;4.68;2.83;;;;;;;;;;5121882;27;20581;-74
2022/07/14 07:52:48;;;;;;;4.53;2.83;;;;;;;;;;5122113;27;20290;-73
2022/07/14 07:55:15;;;;;;;3.67;2.17;;;;;;;;;;5120827;27;20193;-75
2022/07/14 07:57:43;;;;;;;3.28;2.08;;;;;;;;;;5115950;27;20292;-74
2022/07/14 08:00:11;;;;;;;2.33;2.13;;;;;;;;;;5117351;27;20216;-74
2022/07/14 08:02:45;;;;;;;2.35;2.10;;;;;;;;;;5114208;27;20218;-75
2022/07/14 08:05:12;;;;;;;2.42;1.88;;;;;;;;;;5117425;27;20249;-74
2022/07/14 08:07:39;;;;;;;2.72;1.95;;;;;;;;;;5118183;27;20288;-74
2022/07/14 08:10:08;;;;;;;2.53;2.00;;;;;;;;;;5117111;27;20285;-74
2022/07/14 08:12:36;;;;;;;3.75;1.90;;;;;;;;;;5120989;27;20209;-75
2022/07/14 08:15:17;;;;;;;3.20;2.03;;;;;;;;;;5119091;27;20284;-74
2022/07/14 08:20:33;;;;;;;2.40;1.90;;;;;;;;;;5119143;27;20337;-74
2022/07/14 08:23:09;;;;;;;4.28;1.98;;;;;;;;;;5123371;27;20286;-74
2022/07/14 08:25:37;;;;;;;4.15;2.10;;;;;;;;;;5116959;27;20248;-75
2022/07/14 08:28:05;;;;;;;3.33;2.03;;;;;;;;;;5119636;27;20288;-75
2022/07/14 08:30:32;;;;;;;3.47;1.88;;;;;;;;;;5123820;27;20233;-75
2022/07/14 08:33:00;;;;;;;3.05;2.08;;;;;;;;;;5117289;27;20724;-73
2022/07/14 08:35:31;;;;;;;4.47;1.77;;;;;;;;;;5127060;27;20228;-75
2022/07/14 08:37:59;;;;;;;2.95;2.00;;;;;;;;;;5119263;27;20204;-74
2022/07/14 08:55:48;;;;;;;2.63;1.80;;;;;;;;;;5134368;27;20201;-72
2022/07/14 09:04:13;;;;;;;4.47;2.17;;;;;;;;;;5068697;28;20222;-73
2022/07/14 09:06:51;;;;;;;2.92;1.88;;;;;;;;;;5086694;28;20257;-72
2022/07/14 09:09:20;;;;;;;2.20;1.63;;;;;;;;;;5085917;28;20198;-75
2022/07/14 09:11:56;;;;;;;3.33;2.00;;;;;;;;;;5083530;28;20802;-75
2022/07/14 09:14:23;;;;;;;3.33;1.98;;;;;;;;;;5084259;28;20206;-74
2022/07/14 09:16:52;;;;;;;3.47;1.90;;;;;;;;;;5084997;28;20198;-75
2022/07/14 09:19:20;;;;;;;3.75;1.90;;;;;;;;;;5089517;28;20202;-75
2022/07/14 09:21:53;;;;;;;3.05;2.00;;;;;;;;;;5086176;28;20202;-75
2022/07/14 09:24:21;;;;;;;3.47;2.08;;;;;;;;;;5086430;28;20237;-73
2022/07/14 09:26:49;;;;;;;3.58;2.03;;;;;;;;;;5090293;28;20312;-75
2022/07/14 09:29:19;;;;;;;2.65;1.92;;;;;;;;;;5090954;28;20241;-74
2022/07/14 09:31:47;;;;;;;4.40;1.90;;;;;;;;;;5089278;28;20239;-74
2022/07/14 09:34:26;;;;;;;4.03;2.30;;;;;;;;;;5088338;28;20385;-75
2022/07/14 09:36:53;;;;;;;5.50;2.03;;;;;;;;;;5086486;28;20209;-75
2022/07/14 09:39:20;;;;;;;3.42;1.80;;;;;;;;;;5089542;28;20226;-75
2022/07/14 09:41:52;;;;;;;3.38;1.92;;;;;;;;;;5106937;27;20284;-75
2022/07/14 09:44:21;;;;;;;5.68;1.80;;;;;;;;;;5125509;27;20204;-75
2022/07/14 09:46:50;;;;;;;5.20;2.10;;;;;;;;;;5128555;27;20347;-75
2022/07/14 09:49:18;;;;;;;4.10;1.90;;;;;;;;;;5131296;27;20284;-75
2022/07/14 09:51:56;;;;;;;2.97;1.83;;;;;;;;;;5126416;27;20680;-75
2022/07/14 09:54:42;;;;;;;4.55;1.52;;;;;;;;;;5119551;27;20331;-74
2022/07/14 09:57:10;;;;;;;2.78;1.85;;;;;;;;;;5129576;27;20193;-75
2022/07/14 09:59:45;;;;;;;4.40;1.65;;;;;;;;;;5128328;27;20201;-75
2022/07/14 10:02:18;;;;;;;2.35;1.50;;;;;;;;;;5136994;27;20684;-75
2022/07/14 10:04:46;;;;;;;3.17;1.80;;;;;;;;;;5136009;27;20636;-75
2022/07/14 10:07:13;;;;;;;3.45;1.80;;;;;;;;;;5147325;27;20295;-74
2022/07/14 10:09:42;;;;;;;3.03;1.83;;;;;;;;;;5122566;27;20236;-74
2022/07/14 10:12:09;;;;;;;4.63;2.08;;;;;;;;;;5142145;27;20201;-75
2022/07/14 10:14:38;;;;;;;3.25;1.77;;;;;;;;;;5123468;27;20301;-75
2022/07/14 10:17:07;;;;;;;4.80;1.63;;;;;;;;;;5123620;27;20752;-75
2022/07/14 10:19:34;;;;;;;3.42;1.77;;;;;;;;;;5139657;27;20208;-76
2022/07/14 10:22:01;;;;;;;2.88;1.60;;;;;;;;;;5137665;27;20303;-75
2022/07/14 10:24:30;;;;;;;4.05;1.67;;;;;;;;;;5138863;27;20196;-75
2022/07/14 10:26:58;;;;;;;2.80;1.83;;;;;;;;;;5130204;27;20225;-75
2022/07/14 10:29:25;;;;;;;4.20;1.45;;;;;;;;;;5147137;27;20230;-75
2022/07/14 10:32:07;;;;;;;5.95;1.92;;;;;;;;;;5139042;27;20287;-75
2022/07/14 10:34:43;;;;;;;2.03;1.60;;;;;;;;;;5125188;27;20217;-75
2022/07/14 10:37:11;;;;;;;3.63;1.88;;;;;;;;;;5126463;27;20201;-75
2022/07/14 10:39:43;;;;;;;2.45;1.80;;;;;;;;;;5128945;27;20281;-75
2022/07/14 10:42:13;;;;;;;3.08;1.52;;;;;;;;;;5128758;27;20284;-75
2022/07/14 10:44:45;;;;;;;3.17;1.63;;;;;;;;;;5120454;27;20240;-75
2022/07/14 10:47:13;;;;;;;3.22;2.03;;;;;;;;;;5116609;27;20217;-76
2022/07/14 10:52:40;;;;;;;4.55;1.75;;;;;;;;;;5147124;27;21048;-76
2022/07/14 10:55:15;;;;;;;4.15;2.22;;;;;;;;;;5141175;27;20208;-73
2022/07/14 10:57:57;;;;;;;2.63;1.88;;;;;;;;;;5128906;28;20677;-74
2022/07/14 11:00:39;;;;;;;2.83;1.60;;;;;;;;;;5129631;27;20229;-73
2022/07/14 11:03:18;;;;;;;2.80;2.00;;;;;;;;;;5128838;27;20228;-73
2022/07/14 11:06:00;;;;;;;3.47;1.85;;;;;;;;;;5128565;27;20224;-73
2022/07/14 11:08:29;;;;;;;3.40;1.83;;;;;;;;;;5128405;27;20687;-73
2022/07/14 11:10:57;;;;;;;2.10;1.90;;;;;;;;;;5136201;27;20319;-73
2022/07/14 11:13:24;;;;;;;4.07;1.77;;;;;;;;;;5130541;27;20225;-73
2022/07/14 11:15:53;;;;;;;4.72;2.00;;;;;;;;;;5129042;27;20236;-73
2022/07/14 11:18:27;;;;;;;4.38;1.83;;;;;;;;;;5128340;27;20265;-75
2022/07/14 11:20:59;;;;;;;3.45;1.80;;;;;;;;;;5130605;27;20200;-73
2022/07/14 11:23:27;;;;;;;4.07;2.05;;;;;;;;;;5135198;27;20202;-75
2022/07/14 11:25:57;;;;;;;2.38;1.77;;;;;;;;;;5132730;27;20643;-73
2022/07/14 11:28:48;;;;;;;3.47;1.73;;;;;;;;;;5133626;27;20236;-74
2022/07/14 11:31:16;;;;;;;1.95;1.45;;;;;;;;;;5107469;27;20224;-74
2022/07/14 11:36:31;;;;;;;3.72;2.00;;;;;;;;;;5129279;27;20199;-75
2022/07/14 11:39:17;;;;;;;3.70;1.70;;;;;;;;;;5133277;27;20231;-75
2022/07/14 11:41:47;;;;;;;4.32;2.28;;;;;;;;;;5132255;27;20284;-75
2022/07/14 11:44:29;;;;;;;2.58;1.63;;;;;;;;;;5128866;27;20205;-76
2022/07/14 11:46:59;;;;;;;3.45;1.83;;;;;;;;;;5123477;28;20282;-76
2022/07/14 11:49:26;;;;;;;2.47;1.60;;;;;;;;;;5129231;27;20197;-76
2022/07/14 11:51:55;;;;;;;4.45;1.42;;;;;;;;;;5126891;27;20320;-76
2022/07/14 11:54:23;;;;;;;2.63;1.63;;;;;;;;;;5127895;27;20206;-75
2022/07/14 11:57:02;;;;;;;2.45;1.50;;;;;;;;;;5120338;27;20209;-76
2022/07/14 11:59:29;;;;;;;1.55;1.25;;;;;;;;;;5125302;27;20207;-75
2022/07/14 12:02:07;;;;;;;3.08;1.42;;;;;;;;;;5124568;28;20284;-75
2022/07/14 12:04:34;;;;;;;2.63;1.60;;;;;;;;;;5111786;28;20198;-75
2022/07/14 12:07:02;;;;;;;2.60;1.40;;;;;;;;;;5112338;28;20202;-76
2022/07/14 12:09:30;;;;;;;3.22;1.20;;;;;;;;;;5111017;27;20254;-76
2022/07/14 12:11:59;;;;;;;7.13;3.03;;;;;;;;;;5112241;27;20225;-75
2022/07/14 12:14:26;;;;;;;9.75;8.75;;;;;;;;;;5114237;27;20752;-76
2022/07/14 12:16:53;;;;;;;3.97;1.52;;;;;;;;;;5110509;28;20233;-75
2022/07/14 12:19:27;;;;;;;4.88;1.35;;;;;;;;;;5118900;27;20248;-75
2022/07/14 12:21:58;;;;;;;2.58;1.40;;;;;;;;;;5117155;27;20300;-75
2022/07/14 12:24:26;;;;;;;3.75;1.40;;;;;;;;;;5113403;27;20209;-75
2022/07/14 12:26:54;;;;;;;3.67;1.52;;;;;;;;;;5111127;28;20234;-75
2022/07/14 12:29:22;;;;;;;3.25;1.40;;;;;;;;;;5112476;28;20559;-74
2022/07/14 12:31:51;;;;;;;4.45;1.50;;;;;;;;;;5117704;27;20218;-75
2022/07/14 12:34:19;;;;;;;3.13;1.33;;;;;;;;;;5116053;27;20206;-75
2022/07/14 12:36:47;;;;;;;2.85;1.30;;;;;;;;;;5109107;27;20225;-75
2022/07/14 12:39:14;;;;;;;3.60;1.40;;;;;;;;;;5113959;28;20190;-75
2022/07/14 12:41:43;;;;;;;3.65;1.40;;;;;;;;;;5114438;28;20665;-75
2022/07/14 12:44:11;;;;;;;2.15;1.30;;;;;;;;;;5104473;28;20554;-75
2022/07/14 12:46:40;;;;;;;3.67;1.40;;;;;;;;;;5115921;27;20232;-75
2022/07/14 12:49:08;;;;;;;4.70;1.30;;;;;;;;;;5120318;27;20246;-74
2022/07/14 12:51:37;;;;;;;2.50;1.17;;;;;;;;;;5120625;27;20222;-74
2022/07/14 12:54:06;;;;;;;3.53;1.15;;;;;;;;;;5119972;27;20668;-75
2022/07/14 12:56:34;;;;;;;2.28;1.27;;;;;;;;;;5118706;27;20293;-75
2022/07/14 12:59:02;;;;;;;2.53;1.30;;;;;;;;;;5125278;27;20533;-75
2022/07/14 13:01:30;;;;;;;2.88;1.35;;;;;;;;;;5121208;27;20657;-74
2022/07/14 13:04:00;;;;;;;3.17;1.05;;;;;;;;;;5110491;27;20282;-74
2022/07/14 13:06:28;;;;;;;4.13;1.30;;;;;;;;;;5113332;27;20232;-75
2022/07/14 13:08:55;;;;;;;2.38;1.23;;;;;;;;;;5114833;27;20293;-75
2022/07/14 13:11:29;;;;;;;3.00;1.30;;;;;;;;;;5117024;27;20312;-75
2022/07/14 13:13:57;;;;;;;3.28;1.38;;;;;;;;;;5115365;27;20198;-74
2022/07/14 13:16:26;;;;;;;3.72;1.52;;;;;;;;;;5117292;27;20204;-75
2022/07/14 13:19:05;;;;;;;4.75;1.10;;;;;;;;;;5119551;27;20675;-75
2022/07/14 13:21:49;;;;;;;2.75;1.20;;;;;;;;;;5119682;27;20193;-74
2022/07/14 13:24:17;;;;;;;3.85;1.30;;;;;;;;;;5110886;27;20290;-75
2022/07/14 13:26:45;;;;;;;3.33;1.30;;;;;;;;;;5123932;27;20197;-74
2022/07/14 13:29:12;;;;;;;2.22;1.15;;;;;;;;;;5122563;27;20236;-75
2022/07/14 13:31:39;;;;;;;3.28;1.30;;;;;;;;;;5124146;27;20252;-75
2022/07/14 13:34:17;;;;;;;1.67;1.05;;;;;;;;;;5116052;27;21065;-75
2022/07/14 13:36:44;;;;;;;2.83;1.20;;;;;;;;;;5116347;27;20353;-75
2022/07/14 13:39:11;;;;;;;2.80;1.10;;;;;;;;;;5117309;27;20228;-75
2022/07/14 13:41:39;;;;;;;3.08;1.20;;;;;;;;;;5113381;28;20227;-75
2022/07/14 13:44:06;;;;;;;2.95;1.30;;;;;;;;;;5112269;27;20318;-75
2022/07/14 13:46:35;;;;;;;3.47;1.27;;;;;;;;;;5120418;27;20258;-74
2022/07/14 13:49:02;;;;;;;2.30;1.38;;;;;;;;;;5117533;27;20201;-75
2022/07/14 13:54:15;;;;;;;3.42;1.17;;;;;;;;;;5116627;27;20207;-75
2022/07/14 13:56:42;;;;;;;4.07;1.38;;;;;;;;;;5118603;27;20236;-75
2022/07/14 13:59:10;;;;;;;1.60;0.93;;;;;;;;;;5111408;28;20237;-75
2022/07/14 14:01:37;;;;;;;2.58;1.33;;;;;;;;;;5113787;27;20198;-75
2022/07/14 14:04:05;;;;;;;5.78;1.30;;;;;;;;;;5112436;27;20202;-75
2022/07/14 14:06:33;;;;;;;4.45;1.10;;;;;;;;;;5121696;27;20216;-75
2022/07/14 14:09:01;;;;;;;3.45;1.30;;;;;;;;;;5112716;27;20280;-75
2022/07/14 14:11:29;;;;;;;2.20;1.35;;;;;;;;;;5115443;27;20709;-75
2022/07/14 14:13:56;;;;;;;2.22;1.20;;;;;;;;;;5112037;27;20202;-75
2022/07/14 14:16:25;;;;;;;3.08;1.50;;;;;;;;;;5114214;27;20250;-75
2022/07/14 14:18:53;;;;;;;2.58;1.30;;;;;;;;;;5118842;27;20200;-75
2022/07/14 14:21:20;;;;;;;2.45;1.08;;;;;;;;;;5113164;27;20229;-75
2022/07/14 14:23:48;;;;;;;2.22;0.98;;;;;;;;;;5112834;27;20226;-76
2022/07/14 14:26:16;;;;;;;5.07;1.30;;;;;;;;;;5111667;27;20237;-75
2022/07/14 14:28:43;;;;;;;2.45;1.20;;;;;;;;;;5114381;27;20194;-74
2022/07/14 14:31:10;;;;;;;3.30;1.30;;;;;;;;;;5115364;27;20624;-75
2022/07/14 14:33:38;;;;;;;2.53;0.98;;;;;;;;;;5110962;27;20290;-75
2022/07/14 14:36:12;;;;;;;5.47;1.23;;;;;;;;;;5111061;27;20584;-76
2022/07/14 14:38:40;;;;;;;2.85;1.38;;;;;;;;;;5110398;28;20201;-75
2022/07/14 14:41:08;;;;;;;3.15;1.35;;;;;;;;;;5111420;28;20198;-75
2022/07/14 14:43:36;;;;;;;2.83;1.30;;;;;;;;;;5109595;28;20284;-75
2022/07/14 14:46:04;;;;;;;2.65;1.10;;;;;;;;;;5111888;28;20232;-74
2022/07/14 14:48:31;;;;;;;3.08;1.23;;;;;;;;;;5111624;28;20212;-74
2022/07/14 14:51:00;;;;;;;3.25;1.08;;;;;;;;;;5110258;28;20233;-74
2022/07/14 14:53:27;;;;;;;2.58;1.10;;;;;;;;;;5114683;28;20737;-74
2022/07/14 14:55:54;;;;;;;4.63;1.23;;;;;;;;;;5111755;28;20213;-74
2022/07/14 14:58:23;;;;;;;1.98;1.20;;;;;;;;;;5111267;28;20553;-74
2022/07/14 15:00:50;;;;;;;5.63;1.50;;;;;;;;;;5110753;28;20219;-74
2022/07/14 15:03:18;;;;;;;2.92;1.20;;;;;;;;;;5115298;28;20276;-74
2022/07/14 15:05:45;;;;;;;2.67;1.30;;;;;;;;;;5109193;28;20289;-74
2022/07/14 15:08:13;;;;;;;2.72;1.42;;;;;;;;;;5113147;28;20287;-74
2022/07/14 15:10:40;;;;;;;3.38;1.42;;;;;;;;;;5111240;28;20206;-74
2022/07/14 15:13:07;;;;;;;1.73;1.38;;;;;;;;;;5110903;28;20256;-74
2022/07/14 15:15:36;;;;;;;3.50;1.50;;;;;;;;;;5110840;28;20202;-74
2022/07/14 15:18:04;;;;;;;4.90;1.83;;;;;;;;;;5111293;28;20270;-74
2022/07/14 15:20:31;;;;;;;3.55;1.58;;;;;;;;;;5112486;28;20193;-75
2022/07/14 15:22:59;;;;;;;5.25;1.92;;;;;;;;;;5110698;28;20205;-75
2022/07/14 15:25:26;;;;;;;3.75;2.03;;;;;;;;;;5112241;28;20221;-74
2022/07/14 15:27:53;;;;;;;3.80;2.10;;;;;;;;;;5110818;28;20247;-74